Terminal Aerodrome Forecast
Issued by NWS

Home | Current Version | Previous Version | Text Only | Print | Product List | Glossary On
Versions: 1 2 3 4 5 6 7 8 9 10 11 12 13 14 15
000
FTUS44 KBMX 272300
TAFMGM
TAF
KMGM 272320Z 2800/2824 24006KT P6SM SCT250
      TEMPO 2808/2812 00000KT 4SM BR BKN025
     FM281400 25005KT P6SM VCSH BKN025 BKN070
      TEMPO 2815/2818 4SM -SHRA BKN020
     FM281800 29012KT P6SM VCTS SCT030CB BKN070=

USA.gov is the U.S. government's official web portal to all federal, state and local government web resources and services.